Ida Theresa — V7RQ9 — position and weather

sailwx.info

Track history (hours):
 
Tides and Currents Weather Stations Pressure Air Temp Water Temp Dewpoint Dewpoint Depression Visibility Wind Speed Wind Dir Waves Ship Positions

Ida Theresa

Last reported at 2017-Jan-25 03:04 UTC. Time now 2017-Feb-25 09:10 UTC.
Position N 15°21' W 061°34'.
Warning: this ship's position is 31 days out of date.

Length 121 m; draft 5.4 m.

Type: Ship. MMSI: 538090386.

Date/timePositionNaut miles runAvg speedWind from/ knotsBaromVisibWave heightAir tempDewpointWater temp
2017-Jan-25 03:04N 15°21' W 061°34'712.0
2017-Jan-25 02:27N 15°28' W 061°35'2511.4
2017-Jan-25 00:16N 15°53' W 061°28'1112.0
2017-Jan-24 23:22N 16°03' W 061°29'910.8
2017-Jan-24 22:34N 16°12' W 061°32'3 0.6
2017-Jan-24 18:06N 16°14' W 061°33'0 0.0
2017-Jan-24 17:27N 16°14' W 061°33'0 0.0
2017-Jan-24 16:30N 16°14' W 061°33'0 0.0
2017-Jan-24 15:03N 16°14' W 061°33'0 0.0
2017-Jan-24 14:24N 16°14' W 061°33'0 0.0
2017-Jan-24 12:33N 16°14' W 061°33'0 0.0
2017-Jan-24 11:33N 16°14' W 061°33'0 0.0
2017-Jan-24 08:15N 16°14' W 061°33'0 0.0
2017-Jan-23 22:33N 16°14' W 061°32'1110.5
2017-Jan-23 21:33N 16°04' W 061°30'19 9.2
2017-Jan-23 19:32N 15°55' W 061°47'2311.3
2017-Jan-23 17:27N 16°08' W 062°08'1111.5
2017-Jan-23 16:29N 16°13' W 062°18'1611.1
2017-Jan-23 15:03N 16°22' W 062°32'711.1
2017-Jan-23 14:26N 16°25' W 062°38'1111.3
2017-Jan-23 13:27N 16°31' W 062°48'  
Track history (hours):
 
Tides and Currents Weather Stations Pressure Air Temp Water Temp Dewpoint Dewpoint Depression Visibility Wind Speed Wind Dir Waves Ship Positions

Ida Theresa

Last reported at 2017-Jan-25 03:04 UTC. Time now 2017-Feb-25 09:10 UTC.
Position N 15°21' W 061°34'.
Warning: this ship's position is 31 days out of date.

Length 121 m; draft 5.4 m.

Type: Ship. MMSI: 538090386.

Date/timePositionNaut miles runAvg speedWind from/ knotsBaromVisibWave heightAir tempDewpointWater temp
2017-Jan-25 03:04N 15°21' W 061°34'712.0
2017-Jan-25 02:27N 15°28' W 061°35'2511.4
2017-Jan-25 00:16N 15°53' W 061°28'1112.0
2017-Jan-24 23:22N 16°03' W 061°29'910.8
2017-Jan-24 22:34N 16°12' W 061°32'3 0.6
2017-Jan-24 18:06N 16°14' W 061°33'0 0.0
2017-Jan-24 17:27N 16°14' W 061°33'0 0.0
2017-Jan-24 16:30N 16°14' W 061°33'0 0.0
2017-Jan-24 15:03N 16°14' W 061°33'0 0.0
2017-Jan-24 14:24N 16°14' W 061°33'0 0.0
2017-Jan-24 12:33N 16°14' W 061°33'0 0.0
2017-Jan-24 11:33N 16°14' W 061°33'0 0.0
2017-Jan-24 08:15N 16°14' W 061°33'0 0.0
2017-Jan-23 22:33N 16°14' W 061°32'1110.5
2017-Jan-23 21:33N 16°04' W 061°30'19 9.2
2017-Jan-23 19:32N 15°55' W 061°47'2311.3
2017-Jan-23 17:27N 16°08' W 062°08'1111.5
2017-Jan-23 16:29N 16°13' W 062°18'1611.1
2017-Jan-23 15:03N 16°22' W 062°32'711.1
2017-Jan-23 14:26N 16°25' W 062°38'1111.3
2017-Jan-23 13:27N 16°31' W 062°48'  

Dump ship's entire track history